Mc Williams, Alabama
Current Conditions -  °F | °C
As of 5:56 PM on Wednesday 22 Oct 2014 (Local Time) from KPRN Reporting Station
Clear Clear  
Wind Chill: 68°   Ceiling: Unl
Heat Index: 68°   Visibility: 10mi
Dew Point: 44°   Wind: 3mph
Humidity: 42%   Direction: 20°NNE
Pressure: 30.06"   Gusts: NA
Location:  31.8356°N, 87.1016°W
Report Text: KPRN 222256Z AUTO 02003KT 10SM CLR 20/07 A3006 RMK AO2 SLP177 T02000067
Loading
Personal Weather Stations






























Interactive Weather Map
Tropical Storm Tracking
New forecast layout! Learn more

10-Day Weather Forecast

Advertisements
Track Severe Weather on mobile